Galax, Virginia
Current Conditions -  °F | °C
As of 4:35 PM on Monday 24 Nov 2014 (Local Time) from KHLX Reporting Station
Clear Clear  
Wind Chill: 61°   Ceiling: Unl
Heat Index: 61°   Visibility: 10mi
Dew Point: 52°   Wind: 7mph
Humidity: 73%   Direction: 190°S
Pressure: 29.77"   Gusts: NA
Location:  36.67°N, 80.93°W
Report Text: KHLX 242135Z AUTO 19006KT 10SM CLR 16/11 A2977 RMK AO2 T01620113
Loading
Personal Weather Stations






























Interactive Weather Map New forecast layout! Learn more

10-Day Weather Forecast

Advertisements
Track Severe Weather on mobile